sensor_id;sensor_type;location;lat;lon;timestamp;noise_LAeq;noise_LA_min;noise_LA_max;noise_LA01;noise_LA95
61095;Laerm;20450;49.074;9.158;2023-06-14T00:00:05;39.81;37.12;43.39;;
61095;Laerm;20450;49.074;9.158;2023-06-14T00:02:33;40.25;37.32;42.35;;
61095;Laerm;20450;49.074;9.158;2023-06-14T00:05:00;40.82;38.67;43.34;;
61095;Laerm;20450;49.074;9.158;2023-06-14T00:07:34;41.04;39.08;43.14;;
61095;Laerm;20450;49.074;9.158;2023-06-14T00:10:02;40.83;39.21;42.16;;
61095;Laerm;20450;49.074;9.158;2023-06-14T00:12:31;40.85;38.81;44.65;;
61095;Laerm;20450;49.074;9.158;2023-06-14T00:14:58;40.78;38.21;43.94;;
61095;Laerm;20450;49.074;9.158;2023-06-14T00:17:25;40.73;38.95;42.47;;
61095;Laerm;20450;49.074;9.158;2023-06-14T00:19:53;40.32;38.05;42.16;;
61095;Laerm;20450;49.074;9.158;2023-06-14T00:22:20;40.28;37.70;43.51;;
61095;Laerm;20450;49.074;9.158;2023-06-14T00:24:47;40.22;37.70;43.34;;
61095;Laerm;20450;49.074;9.158;2023-06-14T00:27:14;40.45;37.88;44.62;;
61095;Laerm;20450;49.074;9.158;2023-06-14T00:29:43;40.37;37.70;44.83;;
61095;Laerm;20450;49.074;9.158;2023-06-14T00:32:10;40.37;37.32;44.54;;
61095;Laerm;20450;49.074;9.158;2023-06-14T00:34:37;40.51;37.88;45.36;;
61095;Laerm;20450;49.074;9.158;2023-06-14T00:37:04;40.37;37.70;43.77;;
61095;Laerm;20450;49.074;9.158;2023-06-14T00:39:32;40.31;37.88;44.87;;
61095;Laerm;20450;49.074;9.158;2023-06-14T00:41:59;40.14;38.05;42.76;;
61095;Laerm;20450;49.074;9.158;2023-06-14T00:44:26;40.33;37.70;42.16;;
61095;Laerm;20450;49.074;9.158;2023-06-14T00:46:55;40.51;37.32;44.90;;
61095;Laerm;20450;49.074;9.158;2023-06-14T00:49:23;40.17;37.70;42.82;;
61095;Laerm;20450;49.074;9.158;2023-06-14T00:51:50;40.39;38.05;42.16;;
61095;Laerm;20450;49.074;9.158;2023-06-14T00:54:18;40.15;37.70;41.96;;
61095;Laerm;20450;49.074;9.158;2023-06-14T00:56:45;40.24;38.05;43.94;;
61095;Laerm;20450;49.074;9.158;2023-06-14T00:59:12;40.40;38.21;42.53;;
61095;Laerm;20450;49.074;9.158;2023-06-14T01:01:39;40.50;38.21;42.41;;
61095;Laerm;20450;49.074;9.158;2023-06-14T01:04:09;40.36;38.05;43.19;;
61095;Laerm;20450;49.074;9.158;2023-06-14T01:06:49;40.80;38.81;42.88;;
61095;Laerm;20450;49.074;9.158;2023-06-14T01:09:31;40.52;38.32;42.16;;
61095;Laerm;20450;49.074;9.158;2023-06-14T01:12:11;40.89;38.95;42.41;;
61095;Laerm;20450;49.074;9.158;2023-06-14T01:14:41;40.78;38.95;43.86;;
61095;Laerm;20450;49.074;9.158;2023-06-14T01:17:09;40.93;38.67;43.86;;
61095;Laerm;20450;49.074;9.158;2023-06-14T01:19:38;40.84;38.81;43.14;;
61095;Laerm;20450;49.074;9.158;2023-06-14T01:22:05;40.85;39.21;42.41;;
61095;Laerm;20450;49.074;9.158;2023-06-14T01:24:34;40.92;39.21;42.29;;
61095;Laerm;20450;49.074;9.158;2023-06-14T01:27:02;40.76;38.67;42.29;;
61095;Laerm;20450;49.074;9.158;2023-06-14T01:29:30;40.58;38.67;42.59;;
61095;Laerm;20450;49.074;9.158;2023-06-14T01:31:57;40.68;38.52;43.49;;
61095;Laerm;20450;49.074;9.158;2023-06-14T01:34:24;40.60;38.81;42.09;;
61095;Laerm;20450;49.074;9.158;2023-06-14T01:36:53;40.73;38.95;42.41;;
61095;Laerm;20450;49.074;9.158;2023-06-14T01:39:23;40.87;39.21;42.71;;
61095;Laerm;20450;49.074;9.158;2023-06-14T01:41:52;40.89;39.08;42.47;;
61095;Laerm;20450;49.074;9.158;2023-06-14T01:44:22;40.97;39.08;48.42;;
61095;Laerm;20450;49.074;9.158;2023-06-14T01:46:50;41.22;39.34;44.23;;
61095;Laerm;20450;49.074;9.158;2023-06-14T01:49:18;41.24;38.81;45.14;;
61095;Laerm;20450;49.074;9.158;2023-06-14T01:51:46;41.43;39.57;42.88;;
61095;Laerm;20450;49.074;9.158;2023-06-14T01:54:15;41.52;39.70;43.77;;
61095;Laerm;20450;49.074;9.158;2023-06-14T01:56:42;41.06;39.21;42.82;;
61095;Laerm;20450;49.074;9.158;2023-06-14T01:59:11;40.77;38.52;42.82;;
61095;Laerm;20450;49.074;9.158;2023-06-14T02:01:38;40.75;38.95;42.47;;
61095;Laerm;20450;49.074;9.158;2023-06-14T02:04:34;41.11;38.95;44.58;;
61095;Laerm;20450;49.074;9.158;2023-06-14T02:07:15;41.05;38.95;45.48;;
61095;Laerm;20450;49.074;9.158;2023-06-14T02:09:42;40.88;38.95;45.27;;
61095;Laerm;20450;49.074;9.158;2023-06-14T02:12:09;41.06;39.21;44.27;;
61095;Laerm;20450;49.074;9.158;2023-06-14T02:14:39;41.21;39.08;42.53;;
61095;Laerm;20450;49.074;9.158;2023-06-14T02:17:06;41.74;39.92;44.83;;
61095;Laerm;20450;49.074;9.158;2023-06-14T02:19:33;41.72;40.03;42.98;;
61095;Laerm;20450;49.074;9.158;2023-06-14T02:22:01;42.02;40.62;43.34;;
61095;Laerm;20450;49.074;9.158;2023-06-14T02:24:28;43.80;40.71;56.93;;
61095;Laerm;20450;49.074;9.158;2023-06-14T02:26:55;43.94;40.98;53.56;;
61095;Laerm;20450;49.074;9.158;2023-06-14T02:29:22;45.11;40.71;58.85;;
61095;Laerm;20450;49.074;9.158;2023-06-14T02:31:50;46.12;40.62;60.37;;
61095;Laerm;20450;49.074;9.158;2023-06-14T02:34:20;46.23;41.61;59.98;;
61095;Laerm;20450;49.074;9.158;2023-06-14T02:36:47;45.38;41.22;59.81;;
61095;Laerm;20450;49.074;9.158;2023-06-14T02:39:14;43.50;41.38;48.73;;
61095;Laerm;20450;49.074;9.158;2023-06-14T02:41:43;43.42;41.68;48.25;;
61095;Laerm;20450;49.074;9.158;2023-06-14T02:44:10;43.54;41.68;48.87;;
61095;Laerm;20450;49.074;9.158;2023-06-14T02:46:37;44.46;41.61;57.02;;
61095;Laerm;20450;49.074;9.158;2023-06-14T02:49:05;43.77;41.06;56.04;;
61095;Laerm;20450;49.074;9.158;2023-06-14T02:51:32;43.44;41.75;48.54;;
61095;Laerm;20450;49.074;9.158;2023-06-14T02:53:59;43.34;41.68;50.01;;
61095;Laerm;20450;49.074;9.158;2023-06-14T02:56:26;43.17;41.53;47.93;;
61095;Laerm;20450;49.074;9.158;2023-06-14T02:58:53;43.32;41.30;49.50;;
61095;Laerm;20450;49.074;9.158;2023-06-14T03:01:20;43.41;41.75;50.60;;
61095;Laerm;20450;49.074;9.158;2023-06-14T03:03:49;43.46;41.68;48.98;;
61095;Laerm;20450;49.074;9.158;2023-06-14T03:06:22;43.10;41.38;47.93;;
61095;Laerm;20450;49.074;9.158;2023-06-14T03:08:50;42.97;41.38;46.89;;
61095;Laerm;20450;49.074;9.158;2023-06-14T03:11:17;43.08;41.22;45.33;;
61095;Laerm;20450;49.074;9.158;2023-06-14T03:13:44;42.95;41.61;45.54;;
61095;Laerm;20450;49.074;9.158;2023-06-14T03:16:11;43.23;41.53;52.23;;
61095;Laerm;20450;49.074;9.158;2023-06-14T03:18:40;43.45;41.46;50.07;;
61095;Laerm;20450;49.074;9.158;2023-06-14T03:21:07;43.60;41.75;51.70;;
61095;Laerm;20450;49.074;9.158;2023-06-14T03:23:35;43.43;41.75;48.21;;
61095;Laerm;20450;49.074;9.158;2023-06-14T03:26:03;43.76;42.03;48.87;;
61095;Laerm;20450;49.074;9.158;2023-06-14T03:28:30;43.54;41.96;48.31;;
61095;Laerm;20450;49.074;9.158;2023-06-14T03:30:58;44.00;42.03;54.63;;
61095;Laerm;20450;49.074;9.158;2023-06-14T03:33:29;43.39;42.03;45.45;;
61095;Laerm;20450;49.074;9.158;2023-06-14T03:35:56;43.27;41.82;44.80;;
61095;Laerm;20450;49.074;9.158;2023-06-14T03:38:23;43.52;42.09;45.91;;
61095;Laerm;20450;49.074;9.158;2023-06-14T03:40:52;43.86;42.09;50.41;;
61095;Laerm;20450;49.074;9.158;2023-06-14T03:43:19;43.72;42.29;47.67;;
61095;Laerm;20450;49.074;9.158;2023-06-14T03:45:48;43.40;41.61;45.89;;
61095;Laerm;20450;49.074;9.158;2023-06-14T03:48:15;43.52;41.89;47.18;;
61095;Laerm;20450;49.074;9.158;2023-06-14T03:50:42;43.08;41.53;46.84;;
61095;Laerm;20450;49.074;9.158;2023-06-14T03:53:11;43.10;41.06;45.80;;
61095;Laerm;20450;49.074;9.158;2023-06-14T03:55:43;42.85;40.98;45.27;;
61095;Laerm;20450;49.074;9.158;2023-06-14T03:58:14;42.98;40.80;47.10;;
61095;Laerm;20450;49.074;9.158;2023-06-14T04:00:41;43.18;40.89;50.08;;
61095;Laerm;20450;49.074;9.158;2023-06-14T04:03:08;43.58;41.22;50.28;;
61095;Laerm;20450;49.074;9.158;2023-06-14T04:05:35;43.66;40.98;64.07;;
61095;Laerm;20450;49.074;9.158;2023-06-14T04:08:02;43.70;41.46;50.85;;
61095;Laerm;20450;49.074;9.158;2023-06-14T04:10:31;42.97;40.80;49.30;;
61095;Laerm;20450;49.074;9.158;2023-06-14T04:12:58;43.15;40.71;50.04;;
61095;Laerm;20450;49.074;9.158;2023-06-14T04:15:27;43.01;40.80;48.37;;
61095;Laerm;20450;49.074;9.158;2023-06-14T04:17:55;45.77;41.22;68.29;;
61095;Laerm;20450;49.074;9.158;2023-06-14T04:20:23;42.79;40.43;48.81;;
61095;Laerm;20450;49.074;9.158;2023-06-14T04:22:50;43.08;40.03;48.52;;
61095;Laerm;20450;49.074;9.158;2023-06-14T04:25:17;43.34;41.30;49.02;;
61095;Laerm;20450;49.074;9.158;2023-06-14T04:27:50;43.29;40.89;51.82;;
61095;Laerm;20450;49.074;9.158;2023-06-14T04:30:17;43.31;41.06;53.92;;
61095;Laerm;20450;49.074;9.158;2023-06-14T04:32:50;43.33;40.62;49.08;;
61095;Laerm;20450;49.074;9.158;2023-06-14T04:35:18;43.50;41.38;58.20;;
61095;Laerm;20450;49.074;9.158;2023-06-14T04:37:46;42.68;39.70;51.26;;
61095;Laerm;20450;49.074;9.158;2023-06-14T04:40:13;43.24;41.22;54.02;;
61095;Laerm;20450;49.074;9.158;2023-06-14T04:42:41;43.99;41.22;55.58;;
61095;Laerm;20450;49.074;9.158;2023-06-14T04:45:10;43.79;41.22;50.77;;
61095;Laerm;20450;49.074;9.158;2023-06-14T04:47:38;43.18;40.79;51.30;;
61095;Laerm;20450;49.074;9.158;2023-06-14T04:50:09;45.04;41.68;54.96;;
61095;Laerm;20450;49.074;9.158;2023-06-14T04:52:36;45.76;43.24;51.40;;
61095;Laerm;20450;49.074;9.158;2023-06-14T04:55:05;46.29;44.01;55.89;;
61095;Laerm;20450;49.074;9.158;2023-06-14T04:57:33;44.41;42.65;48.26;;
61095;Laerm;20450;49.074;9.158;2023-06-14T05:00:00;44.83;41.82;52.20;;
61095;Laerm;20450;49.074;9.158;2023-06-14T05:02:30;45.33;43.68;51.33;;
61095;Laerm;20450;49.074;9.158;2023-06-14T05:04:58;44.17;41.38;51.62;;
61095;Laerm;20450;49.074;9.158;2023-06-14T05:07:27;44.57;42.41;51.82;;
61095;Laerm;20450;49.074;9.158;2023-06-14T05:09:54;45.45;43.19;55.70;;
61095;Laerm;20450;49.074;9.158;2023-06-14T05:12:21;45.50;42.03;57.36;;
61095;Laerm;20450;49.074;9.158;2023-06-14T05:14:48;45.11;41.30;54.90;;
61095;Laerm;20450;49.074;9.158;2023-06-14T05:17:18;44.87;40.43;58.97;;
61095;Laerm;20450;49.074;9.158;2023-06-14T05:19:45;43.96;40.33;52.88;;
61095;Laerm;20450;49.074;9.158;2023-06-14T05:22:12;44.40;41.75;54.24;;
61095;Laerm;20450;49.074;9.158;2023-06-14T05:24:40;44.57;40.98;52.38;;
61095;Laerm;20450;49.074;9.158;2023-06-14T05:27:07;43.89;41.14;49.35;;
61095;Laerm;20450;49.074;9.158;2023-06-14T05:29:34;44.63;42.16;55.11;;
61095;Laerm;20450;49.074;9.158;2023-06-14T05:32:01;44.35;41.61;54.68;;
61095;Laerm;20450;49.074;9.158;2023-06-14T05:34:28;44.77;42.09;52.13;;
61095;Laerm;20450;49.074;9.158;2023-06-14T05:36:55;44.19;41.61;57.28;;
61095;Laerm;20450;49.074;9.158;2023-06-14T05:39:22;46.69;43.19;55.98;;
61095;Laerm;20450;49.074;9.158;2023-06-14T05:41:50;46.80;43.94;53.44;;
61095;Laerm;20450;49.074;9.158;2023-06-14T05:44:17;47.26;43.39;53.52;;
61095;Laerm;20450;49.074;9.158;2023-06-14T05:46:44;46.96;43.09;54.29;;
61095;Laerm;20450;49.074;9.158;2023-06-14T05:49:11;47.89;44.03;60.51;;
61095;Laerm;20450;49.074;9.158;2023-06-14T05:51:38;48.17;43.54;54.45;;
61095;Laerm;20450;49.074;9.158;2023-06-14T05:54:06;44.37;41.38;59.05;;
61095;Laerm;20450;49.074;9.158;2023-06-14T05:56:34;43.39;39.99;53.46;;
61095;Laerm;20450;49.074;9.158;2023-06-14T05:59:03;43.01;40.03;50.23;;
61095;Laerm;20450;49.074;9.158;2023-06-14T06:05:19;45.94;42.53;58.18;;
61095;Laerm;20450;49.074;9.158;2023-06-14T06:07:46;47.82;44.69;53.64;;
61095;Laerm;20450;49.074;9.158;2023-06-14T06:10:13;48.96;45.04;60.79;;
61095;Laerm;20450;49.074;9.158;2023-06-14T06:12:41;48.32;43.14;53.19;;
61095;Laerm;20450;49.074;9.158;2023-06-14T06:15:11;45.29;41.30;52.50;;
61095;Laerm;20450;49.074;9.158;2023-06-14T06:17:38;46.19;43.29;52.34;;
61095;Laerm;20450;49.074;9.158;2023-06-14T06:20:21;46.70;44.43;54.61;;
61095;Laerm;20450;49.074;9.158;2023-06-14T06:22:48;45.58;43.24;52.84;;
61095;Laerm;20450;49.074;9.158;2023-06-14T06:25:15;44.95;42.30;57.27;;
61095;Laerm;20450;49.074;9.158;2023-06-14T06:27:42;43.96;40.88;54.36;;
61095;Laerm;20450;49.074;9.158;2023-06-14T06:30:12;45.09;42.29;57.59;;
61095;Laerm;20450;49.074;9.158;2023-06-14T06:32:39;44.15;41.06;52.09;;
61095;Laerm;20450;49.074;9.158;2023-06-14T06:35:07;43.84;40.62;56.31;;
61095;Laerm;20450;49.074;9.158;2023-06-14T06:37:34;43.71;41.06;53.13;;
61095;Laerm;20450;49.074;9.158;2023-06-14T06:40:01;44.72;40.13;56.80;;
61095;Laerm;20450;49.074;9.158;2023-06-14T06:42:28;44.29;40.33;53.91;;
61095;Laerm;20450;49.074;9.158;2023-06-14T06:44:58;45.46;42.29;56.33;;
61095;Laerm;20450;49.074;9.158;2023-06-14T06:47:26;46.65;42.16;68.14;;
61095;Laerm;20450;49.074;9.158;2023-06-14T06:49:56;46.86;43.29;61.65;;
61095;Laerm;20450;49.074;9.158;2023-06-14T06:52:23;46.66;42.88;67.53;;
61095;Laerm;20450;49.074;9.158;2023-06-14T06:54:50;44.36;41.30;54.82;;
61095;Laerm;20450;49.074;9.158;2023-06-14T06:57:17;45.81;42.82;51.43;;
61095;Laerm;20450;49.074;9.158;2023-06-14T06:59:44;45.02;41.82;57.40;;
61095;Laerm;20450;49.074;9.158;2023-06-14T07:02:11;46.15;40.98;58.12;;
61095;Laerm;20450;49.074;9.158;2023-06-14T07:04:40;52.31;44.58;64.73;;
61095;Laerm;20450;49.074;9.158;2023-06-14T07:07:58;52.27;41.14;76.83;;
61095;Laerm;20450;49.074;9.158;2023-06-14T07:10:28;44.01;40.43;59.30;;
61095;Laerm;20450;49.074;9.158;2023-06-14T07:12:55;45.69;43.19;53.34;;
61095;Laerm;20450;49.074;9.158;2023-06-14T07:15:22;46.12;43.19;55.14;;
61095;Laerm;20450;49.074;9.158;2023-06-14T07:17:49;46.63;43.44;54.54;;
61095;Laerm;20450;49.074;9.158;2023-06-14T07:24:24;47.36;44.12;54.96;;
61095;Laerm;20450;49.074;9.158;2023-06-14T07:26:51;48.16;44.35;55.81;;
61095;Laerm;20450;49.074;9.158;2023-06-14T07:29:18;47.56;44.62;52.87;;
61095;Laerm;20450;49.074;9.158;2023-06-14T07:31:45;47.68;43.81;58.66;;
61095;Laerm;20450;49.074;9.158;2023-06-14T07:34:12;46.54;44.19;55.57;;
61095;Laerm;20450;49.074;9.158;2023-06-14T07:36:39;45.93;41.96;53.24;;
61095;Laerm;20450;49.074;9.158;2023-06-14T07:39:06;45.95;42.88;52.85;;
61095;Laerm;20450;49.074;9.158;2023-06-14T07:41:34;45.15;41.88;52.33;;
61095;Laerm;20450;49.074;9.158;2023-06-14T07:44:01;45.54;42.82;56.52;;
61095;Laerm;20450;49.074;9.158;2023-06-14T07:46:29;45.16;42.59;57.29;;
61095;Laerm;20450;49.074;9.158;2023-06-14T07:48:56;45.81;41.89;55.68;;
61095;Laerm;20450;49.074;9.158;2023-06-14T07:51:23;46.32;43.29;60.35;;
61095;Laerm;20450;49.074;9.158;2023-06-14T07:53:49;45.92;42.30;55.40;;
61095;Laerm;20450;49.074;9.158;2023-06-14T07:56:16;45.86;42.93;54.68;;
61095;Laerm;20450;49.074;9.158;2023-06-14T07:58:45;46.26;43.19;55.61;;
61095;Laerm;20450;49.074;9.158;2023-06-14T08:01:52;45.02;41.96;59.68;;
61095;Laerm;20450;49.074;9.158;2023-06-14T08:04:20;44.50;41.61;53.53;;
61095;Laerm;20450;49.074;9.158;2023-06-14T08:06:50;45.20;41.96;56.35;;
61095;Laerm;20450;49.074;9.158;2023-06-14T08:09:17;44.25;41.82;53.53;;
61095;Laerm;20450;49.074;9.158;2023-06-14T08:11:44;44.30;40.80;55.80;;
61095;Laerm;20450;49.074;9.158;2023-06-14T08:14:12;43.44;40.13;53.53;;
61095;Laerm;20450;49.074;9.158;2023-06-14T08:16:39;43.02;40.23;47.88;;
61095;Laerm;20450;49.074;9.158;2023-06-14T08:19:06;44.05;40.98;49.08;;
61095;Laerm;20450;49.074;9.158;2023-06-14T08:21:33;44.89;41.61;54.34;;
61095;Laerm;20450;49.074;9.158;2023-06-14T08:24:00;45.37;41.89;51.45;;
61095;Laerm;20450;49.074;9.158;2023-06-14T08:26:27;46.01;43.81;51.57;;
61095;Laerm;20450;49.074;9.158;2023-06-14T08:28:54;46.21;43.04;53.19;;
61095;Laerm;20450;49.074;9.158;2023-06-14T08:31:23;46.59;43.14;55.87;;
61095;Laerm;20450;49.074;9.158;2023-06-14T08:34:40;47.91;44.27;61.24;;
61095;Laerm;20450;49.074;9.158;2023-06-14T08:37:17;47.53;44.23;53.71;;
61095;Laerm;20450;49.074;9.158;2023-06-14T08:39:44;46.74;43.54;53.90;;
61095;Laerm;20450;49.074;9.158;2023-06-14T08:42:14;46.25;43.44;52.96;;
61095;Laerm;20450;49.074;9.158;2023-06-14T08:44:56;45.89;43.19;54.38;;
61095;Laerm;20450;49.074;9.158;2023-06-14T08:47:26;46.14;42.98;59.24;;
61095;Laerm;20450;49.074;9.158;2023-06-14T08:49:56;46.03;42.47;69.04;;
61095;Laerm;20450;49.074;9.158;2023-06-14T08:52:25;46.23;43.29;55.66;;
61095;Laerm;20450;49.074;9.158;2023-06-14T08:54:54;45.65;42.82;54.40;;
61095;Laerm;20450;49.074;9.158;2023-06-14T08:57:21;45.07;42.53;52.93;;
61095;Laerm;20450;49.074;9.158;2023-06-14T08:59:51;46.35;42.85;56.28;;
61095;Laerm;20450;49.074;9.158;2023-06-14T09:02:18;46.84;43.39;53.90;;
61095;Laerm;20450;49.074;9.158;2023-06-14T09:04:46;46.16;43.77;54.23;;
61095;Laerm;20450;49.074;9.158;2023-06-14T09:07:13;46.32;43.44;55.26;;
61095;Laerm;20450;49.074;9.158;2023-06-14T09:09:41;45.71;41.89;54.35;;
61095;Laerm;20450;49.074;9.158;2023-06-14T09:12:31;46.39;42.47;59.06;;
61095;Laerm;20450;49.074;9.158;2023-06-14T09:14:58;45.83;42.71;54.55;;
61095;Laerm;20450;49.074;9.158;2023-06-14T09:17:51;45.68;42.47;56.69;;
61095;Laerm;20450;49.074;9.158;2023-06-14T09:20:19;45.40;42.98;56.50;;
61095;Laerm;20450;49.074;9.158;2023-06-14T09:22:47;44.56;42.29;54.12;;
61095;Laerm;20450;49.074;9.158;2023-06-14T09:25:45;45.74;42.16;65.98;;
61095;Laerm;20450;49.074;9.158;2023-06-14T09:28:13;45.27;42.65;51.56;;
61095;Laerm;20450;49.074;9.158;2023-06-14T09:30:41;45.72;42.88;54.79;;
61095;Laerm;20450;49.074;9.158;2023-06-14T09:33:08;46.13;42.93;54.31;;
61095;Laerm;20450;49.074;9.158;2023-06-14T09:35:37;47.01;43.34;67.59;;
61095;Laerm;20450;49.074;9.158;2023-06-14T09:38:04;47.88;43.63;73.45;;
61095;Laerm;20450;49.074;9.158;2023-06-14T09:40:35;49.31;44.73;70.69;;
61095;Laerm;20450;49.074;9.158;2023-06-14T09:43:04;49.24;45.60;56.62;;
61095;Laerm;20450;49.074;9.158;2023-06-14T09:45:33;49.40;46.13;63.62;;
61095;Laerm;20450;49.074;9.158;2023-06-14T09:48:02;48.65;45.11;59.75;;
61095;Laerm;20450;49.074;9.158;2023-06-14T09:50:34;49.45;46.15;56.45;;
61095;Laerm;20450;49.074;9.158;2023-06-14T09:53:07;49.20;45.83;54.54;;
61095;Laerm;20450;49.074;9.158;2023-06-14T09:55:37;47.04;42.88;52.52;;
61095;Laerm;20450;49.074;9.158;2023-06-14T09:58:07;46.69;43.54;54.35;;
61095;Laerm;20450;49.074;9.158;2023-06-14T10:00:36;45.63;41.75;52.64;;
61095;Laerm;20450;49.074;9.158;2023-06-14T10:03:12;47.19;43.77;54.59;;
61095;Laerm;20450;49.074;9.158;2023-06-14T10:06:07;47.74;44.31;59.13;;
61095;Laerm;20450;49.074;9.158;2023-06-14T10:08:38;46.90;44.23;57.19;;
61095;Laerm;20450;49.074;9.158;2023-06-14T10:11:07;47.37;43.54;58.82;;
61095;Laerm;20450;49.074;9.158;2023-06-14T10:13:35;47.31;44.27;56.84;;
61095;Laerm;20450;49.074;9.158;2023-06-14T10:16:12;46.71;43.77;58.20;;
61095;Laerm;20450;49.074;9.158;2023-06-14T10:18:49;46.87;43.90;61.20;;
61095;Laerm;20450;49.074;9.158;2023-06-14T10:21:40;46.33;42.65;56.22;;
61095;Laerm;20450;49.074;9.158;2023-06-14T10:24:15;47.04;43.39;57.06;;
61095;Laerm;20450;49.074;9.158;2023-06-14T10:26:53;46.97;43.04;60.17;;
61095;Laerm;20450;49.074;9.158;2023-06-14T10:29:24;45.94;42.35;56.59;;
61095;Laerm;20450;49.074;9.158;2023-06-14T10:31:57;46.12;42.53;59.80;;
61095;Laerm;20450;49.074;9.158;2023-06-14T10:34:26;45.68;42.65;52.96;;
61095;Laerm;20450;49.074;9.158;2023-06-14T10:37:12;46.10;43.04;54.44;;
61095;Laerm;20450;49.074;9.158;2023-06-14T10:39:43;46.82;42.88;60.67;;
61095;Laerm;20450;49.074;9.158;2023-06-14T10:42:12;46.52;42.30;53.57;;
61095;Laerm;20450;49.074;9.158;2023-06-14T10:44:42;47.96;42.79;59.47;;
61095;Laerm;20450;49.074;9.158;2023-06-14T10:47:20;46.68;43.39;55.71;;
61095;Laerm;20450;49.074;9.158;2023-06-14T10:49:51;47.54;43.81;53.80;;
61095;Laerm;20450;49.074;9.158;2023-06-14T10:52:22;48.67;45.39;58.03;;
61095;Laerm;20450;49.074;9.158;2023-06-14T10:55:00;49.40;45.57;54.33;;
61095;Laerm;20450;49.074;9.158;2023-06-14T10:57:28;49.04;45.39;52.83;;
61095;Laerm;20450;49.074;9.158;2023-06-14T10:59:55;49.84;45.45;59.32;;
61095;Laerm;20450;49.074;9.158;2023-06-14T11:02:46;48.92;45.30;58.22;;
61095;Laerm;20450;49.074;9.158;2023-06-14T11:05:24;49.19;46.06;56.01;;
61095;Laerm;20450;49.074;9.158;2023-06-14T11:08:13;46.74;42.76;52.38;;
61095;Laerm;20450;49.074;9.158;2023-06-14T11:10:47;46.06;43.09;57.29;;
61095;Laerm;20450;49.074;9.158;2023-06-14T11:13:16;45.45;41.94;55.48;;
61095;Laerm;20450;49.074;9.158;2023-06-14T11:15:46;46.18;41.75;56.90;;
61095;Laerm;20450;49.074;9.158;2023-06-14T11:18:14;45.51;41.53;49.56;;
61095;Laerm;20450;49.074;9.158;2023-06-14T11:20:41;45.84;42.03;63.47;;
61095;Laerm;20450;49.074;9.158;2023-06-14T11:23:08;45.95;42.71;59.41;;
61095;Laerm;20450;49.074;9.158;2023-06-14T11:25:34;45.68;42.98;51.14;;
61095;Laerm;20450;49.074;9.158;2023-06-14T11:28:03;44.85;42.71;49.29;;
61095;Laerm;20450;49.074;9.158;2023-06-14T11:30:30;45.29;42.71;58.64;;
61095;Laerm;20450;49.074;9.158;2023-06-14T11:32:57;45.55;43.29;53.53;;
61095;Laerm;20450;49.074;9.158;2023-06-14T11:35:26;44.92;42.35;55.68;;
61095;Laerm;20450;49.074;9.158;2023-06-14T11:38:45;43.38;38.52;55.93;;
61095;Laerm;20450;49.074;9.158;2023-06-14T11:41:13;42.98;38.21;50.77;;
61095;Laerm;20450;49.074;9.158;2023-06-14T11:43:41;43.67;40.33;56.98;;
61095;Laerm;20450;49.074;9.158;2023-06-14T11:46:13;45.09;40.23;52.96;;
61095;Laerm;20450;49.074;9.158;2023-06-14T11:48:42;45.54;42.76;54.78;;
61095;Laerm;20450;49.074;9.158;2023-06-14T11:51:09;46.70;42.76;57.59;;
61095;Laerm;20450;49.074;9.158;2023-06-14T11:53:37;45.31;40.13;57.03;;
61095;Laerm;20450;49.074;9.158;2023-06-14T11:56:05;45.16;40.23;52.41;;
61095;Laerm;20450;49.074;9.158;2023-06-14T11:58:32;46.33;42.41;53.58;;
61095;Laerm;20450;49.074;9.158;2023-06-14T12:01:03;47.00;43.76;52.72;;
61095;Laerm;20450;49.074;9.158;2023-06-14T12:03:30;47.83;44.65;58.64;;
61095;Laerm;20450;49.074;9.158;2023-06-14T12:06:05;47.75;44.47;54.57;;
61095;Laerm;20450;49.074;9.158;2023-06-14T12:08:34;48.14;44.27;55.95;;
61095;Laerm;20450;49.074;9.158;2023-06-14T12:11:03;47.18;43.94;60.77;;
61095;Laerm;20450;49.074;9.158;2023-06-14T12:13:30;48.17;44.23;69.13;;
61095;Laerm;20450;49.074;9.158;2023-06-14T12:15:57;46.55;42.71;56.26;;
61095;Laerm;20450;49.074;9.158;2023-06-14T12:18:34;46.03;42.88;54.48;;
61095;Laerm;20450;49.074;9.158;2023-06-14T12:21:01;44.87;41.96;53.43;;
61095;Laerm;20450;49.074;9.158;2023-06-14T12:23:42;44.90;41.46;63.56;;
61095;Laerm;20450;49.074;9.158;2023-06-14T12:26:09;46.11;42.93;55.48;;
61095;Laerm;20450;49.074;9.158;2023-06-14T12:28:40;46.25;43.44;55.80;;
61095;Laerm;20450;49.074;9.158;2023-06-14T12:31:07;46.81;43.63;56.01;;
61095;Laerm;20450;49.074;9.158;2023-06-14T12:33:36;46.67;42.16;58.92;;
61095;Laerm;20450;49.074;9.158;2023-06-14T12:36:04;46.58;42.59;56.34;;
61095;Laerm;20450;49.074;9.158;2023-06-14T12:38:34;45.47;42.59;56.20;;
61095;Laerm;20450;49.074;9.158;2023-06-14T12:41:01;44.82;41.61;53.96;;
61095;Laerm;20450;49.074;9.158;2023-06-14T12:43:28;44.19;41.46;53.88;;
61095;Laerm;20450;49.074;9.158;2023-06-14T12:45:55;43.92;40.53;54.23;;
61095;Laerm;20450;49.074;9.158;2023-06-14T12:48:22;43.35;40.33;55.37;;
61095;Laerm;20450;49.074;9.158;2023-06-14T12:50:50;43.46;40.33;62.96;;
61095;Laerm;20450;49.074;9.158;2023-06-14T12:53:17;47.21;41.06;64.56;;
61095;Laerm;20450;49.074;9.158;2023-06-14T12:55:45;45.84;42.47;57.63;;
61095;Laerm;20450;49.074;9.158;2023-06-14T12:58:12;46.29;42.09;53.01;;
61095;Laerm;20450;49.074;9.158;2023-06-14T13:00:38;46.73;43.29;62.39;;
61095;Laerm;20450;49.074;9.158;2023-06-14T13:03:06;47.90;43.04;52.80;;
61095;Laerm;20450;49.074;9.158;2023-06-14T13:05:33;48.99;45.14;57.99;;
61095;Laerm;20450;49.074;9.158;2023-06-14T13:08:01;48.44;44.90;57.92;;
61095;Laerm;20450;49.074;9.158;2023-06-14T13:10:28;47.43;43.86;58.98;;
61095;Laerm;20450;49.074;9.158;2023-06-14T13:12:56;48.61;45.45;63.25;;
61095;Laerm;20450;49.074;9.158;2023-06-14T13:15:23;49.02;45.80;54.38;;
61095;Laerm;20450;49.074;9.158;2023-06-14T13:17:49;48.05;44.83;55.87;;
61095;Laerm;20450;49.074;9.158;2023-06-14T13:20:17;47.46;44.23;60.73;;
61095;Laerm;20450;49.074;9.158;2023-06-14T13:22:46;47.98;43.81;55.13;;
61095;Laerm;20450;49.074;9.158;2023-06-14T13:25:15;47.18;43.68;56.61;;
61095;Laerm;20450;49.074;9.158;2023-06-14T13:28:32;46.83;43.63;54.83;;
61095;Laerm;20450;49.074;9.158;2023-06-14T13:30:59;46.82;43.34;56.03;;
61095;Laerm;20450;49.074;9.158;2023-06-14T13:33:26;46.21;43.58;54.04;;
61095;Laerm;20450;49.074;9.158;2023-06-14T13:35:53;47.47;43.44;62.38;;
61095;Laerm;20450;49.074;9.158;2023-06-14T13:38:20;47.32;42.98;61.85;;
61095;Laerm;20450;49.074;9.158;2023-06-14T13:40:48;46.48;43.34;59.77;;
61095;Laerm;20450;49.074;9.158;2023-06-14T13:43:15;46.17;43.04;55.20;;
61095;Laerm;20450;49.074;9.158;2023-06-14T13:45:42;47.92;43.58;61.04;;
61095;Laerm;20450;49.074;9.158;2023-06-14T13:48:09;46.25;42.71;57.95;;
61095;Laerm;20450;49.074;9.158;2023-06-14T13:50:36;46.78;43.19;55.90;;
61095;Laerm;20450;49.074;9.158;2023-06-14T13:53:21;47.09;42.29;62.99;;
61095;Laerm;20450;49.074;9.158;2023-06-14T13:55:50;45.46;42.41;54.71;;
61095;Laerm;20450;49.074;9.158;2023-06-14T13:58:34;44.81;41.82;55.54;;
61095;Laerm;20450;49.074;9.158;2023-06-14T14:01:19;46.22;42.59;58.15;;
61095;Laerm;20450;49.074;9.158;2023-06-14T14:04:03;46.18;41.61;59.37;;
61095;Laerm;20450;49.074;9.158;2023-06-14T14:06:48;46.54;42.85;64.57;;